createdAt,value
2022-09-07T00:00:59.396Z,9.80
2022-09-07T00:01:59.377Z,7.40
2022-09-07T00:02:59.429Z,9.40
2022-09-07T00:03:59.381Z,10.40
2022-09-07T00:04:59.338Z,9.50
2022-09-07T00:05:59.307Z,9.40
2022-09-07T00:06:59.290Z,9.10
2022-09-07T00:07:59.276Z,9.20
2022-09-07T00:08:59.257Z,10.80
2022-09-07T00:09:59.237Z,9.60
2022-09-07T00:10:59.219Z,8.30
2022-09-07T00:11:59.203Z,10.40
2022-09-07T00:12:59.187Z,10.20
2022-09-07T00:13:59.169Z,7.30
2022-09-07T00:14:59.152Z,7.00
2022-09-07T00:15:59.251Z,7.30
2022-09-07T00:16:59.114Z,7.60
2022-09-07T00:17:59.103Z,7.70
2022-09-07T00:18:59.267Z,8.10
2022-09-07T00:19:59.065Z,8.70
2022-09-07T00:20:59.045Z,7.20
2022-09-07T00:21:59.032Z,8.10
2022-09-07T00:22:59.010Z,8.70
2022-09-07T00:23:58.993Z,8.30
2022-09-07T00:24:58.976Z,10.40
2022-09-07T00:25:58.957Z,11.20
2022-09-07T00:26:58.941Z,7.00
2022-09-07T00:27:58.928Z,10.90
2022-09-07T00:28:58.906Z,7.50
2022-09-07T00:29:58.890Z,7.60
2022-09-07T00:30:58.924Z,8.70
2022-09-07T00:31:58.860Z,8.40
2022-09-07T00:32:58.837Z,6.10
2022-09-07T00:33:58.830Z,7.70
2022-09-07T00:34:58.800Z,7.10
2022-09-07T00:35:58.786Z,9.90
2022-09-07T00:36:58.765Z,9.50
2022-09-07T00:37:58.748Z,8.30
2022-09-07T00:38:58.731Z,8.60
2022-09-07T00:39:58.750Z,8.40
2022-09-07T00:40:58.695Z,8.40
2022-09-07T00:41:58.683Z,8.40
2022-09-07T00:42:58.659Z,10.60
2022-09-07T00:43:58.643Z,9.00
2022-09-07T00:44:58.623Z,8.50
2022-09-07T00:45:58.605Z,7.50
2022-09-07T00:46:58.757Z,6.50
2022-09-07T00:47:58.569Z,8.60
2022-09-07T00:48:58.552Z,7.60
2022-09-07T00:49:58.540Z,8.70
2022-09-07T00:50:58.515Z,9.60
2022-09-07T00:51:58.500Z,8.60
2022-09-07T00:52:58.481Z,6.60
2022-09-07T00:53:58.460Z,8.00
2022-09-07T00:54:58.444Z,6.30
2022-09-07T00:55:58.428Z,10.50
2022-09-07T00:56:58.411Z,8.00
2022-09-07T00:57:58.391Z,7.70
2022-09-07T00:58:58.370Z,6.90
2022-09-07T00:59:58.353Z,7.50
2022-09-07T01:00:58.360Z,8.00
2022-09-07T01:01:58.459Z,7.50
2022-09-07T01:02:58.397Z,9.20
2022-09-07T01:03:58.280Z,5.10
2022-09-07T01:04:58.261Z,6.80
2022-09-07T01:05:58.244Z,8.00
2022-09-07T01:06:58.222Z,8.20
2022-09-07T01:07:58.211Z,6.70
2022-09-07T01:08:58.190Z,7.40
2022-09-07T01:09:58.170Z,9.60
2022-09-07T01:10:58.152Z,8.70
2022-09-07T01:11:58.135Z,6.60
2022-09-07T01:12:58.114Z,8.60
2022-09-07T01:13:58.102Z,8.50
2022-09-07T01:14:58.077Z,5.60
2022-09-07T01:15:58.107Z,6.90
2022-09-07T01:16:58.040Z,6.80
2022-09-07T01:17:58.022Z,8.40
2022-09-07T01:18:58.004Z,5.50
2022-09-07T01:19:57.988Z,8.30
2022-09-07T01:20:57.968Z,6.00
2022-09-07T01:21:57.949Z,5.30
2022-09-07T01:22:57.941Z,5.70
2022-09-07T01:23:57.913Z,6.50
2022-09-07T01:24:57.894Z,10.40
2022-09-07T01:25:57.878Z,6.50
2022-09-07T01:26:57.855Z,6.30
2022-09-07T01:27:57.840Z,6.00
2022-09-07T01:28:57.820Z,6.90
2022-09-07T01:29:57.804Z,5.00
2022-09-07T01:30:57.809Z,7.30
2022-09-07T01:31:57.766Z,6.80
2022-09-07T01:32:57.749Z,6.80
2022-09-07T01:33:57.731Z,5.80
2022-09-07T01:34:57.711Z,6.40
2022-09-07T01:35:57.701Z,5.40
2022-09-07T01:36:57.675Z,5.50
2022-09-07T01:37:57.656Z,6.10
2022-09-07T01:38:57.637Z,6.00
2022-09-07T01:39:57.702Z,5.80
2022-09-07T01:40:57.602Z,4.70
2022-09-07T01:41:57.583Z,5.30
2022-09-07T01:42:57.563Z,6.60
2022-09-07T01:43:57.548Z,5.50
2022-09-07T01:44:57.528Z,6.40
2022-09-07T01:45:57.584Z,7.90
2022-09-07T01:46:57.491Z,6.80
2022-09-07T01:47:57.477Z,6.00
2022-09-07T01:48:57.454Z,6.60
2022-09-07T01:49:57.437Z,6.50
2022-09-07T01:50:57.420Z,6.00
2022-09-07T01:51:57.404Z,4.40
2022-09-07T01:52:57.386Z,5.70
2022-09-07T01:53:57.365Z,5.20
2022-09-07T01:54:57.344Z,8.80
2022-09-07T01:55:57.340Z,8.00
2022-09-07T01:56:57.308Z,6.40
2022-09-07T01:57:57.290Z,6.30
2022-09-07T01:58:57.275Z,5.70
2022-09-07T01:59:57.252Z,6.60
2022-09-07T02:00:57.234Z,5.60
2022-09-07T02:01:57.309Z,4.50
2022-09-07T02:02:57.298Z,6.10
2022-09-07T02:03:57.180Z,7.00
2022-09-07T02:04:57.161Z,7.70
2022-09-07T02:05:57.142Z,7.30
2022-09-07T02:06:57.125Z,7.00
2022-09-07T02:07:57.108Z,5.20
2022-09-07T02:08:57.086Z,6.70
2022-09-07T02:09:57.070Z,5.30
2022-09-07T02:10:57.055Z,6.60
2022-09-07T02:11:57.035Z,5.40
2022-09-07T02:12:57.016Z,6.90
2022-09-07T02:13:56.999Z,6.20
2022-09-07T02:14:56.985Z,6.50
2022-09-07T02:15:57.017Z,5.60
2022-09-07T02:16:56.943Z,5.90
2022-09-07T02:17:56.921Z,7.70
2022-09-07T02:18:56.901Z,6.00
2022-09-07T02:19:56.884Z,5.60
2022-09-07T02:20:56.867Z,7.00
2022-09-07T02:21:56.849Z,6.40
2022-09-07T02:22:56.830Z,7.70
2022-09-07T02:23:56.810Z,6.10
2022-09-07T02:24:56.793Z,5.80
2022-09-07T02:25:56.775Z,4.70
2022-09-07T02:26:56.759Z,6.00
2022-09-07T02:27:56.740Z,5.90
2022-09-07T02:28:56.739Z,6.60
2022-09-07T02:29:56.704Z,4.90
2022-09-07T02:30:56.744Z,6.60
2022-09-07T02:31:56.667Z,5.10
2022-09-07T02:32:56.661Z,6.60
2022-09-07T02:33:56.629Z,5.30
2022-09-07T02:34:56.612Z,6.70
2022-09-07T02:35:56.596Z,6.50
2022-09-07T02:36:56.579Z,6.00
2022-09-07T02:37:56.557Z,8.50
2022-09-07T02:38:56.539Z,7.90
2022-09-07T02:39:56.616Z,7.00
2022-09-07T02:40:56.498Z,5.70
2022-09-07T02:41:56.484Z,5.90
2022-09-07T02:42:56.466Z,7.30
2022-09-07T02:43:56.444Z,7.50
2022-09-07T02:44:56.428Z,6.30
2022-09-07T02:45:56.487Z,6.40
2022-09-07T02:46:56.391Z,6.30
2022-09-07T02:47:56.378Z,5.10
2022-09-07T02:48:56.356Z,8.30
2022-09-07T02:49:56.335Z,6.30
2022-09-07T02:50:56.318Z,5.00
2022-09-07T02:51:56.298Z,6.70
2022-09-07T02:52:56.281Z,7.10
2022-09-07T02:53:56.267Z,5.80
2022-09-07T02:54:56.244Z,5.90
2022-09-07T02:55:56.223Z,5.50
2022-09-07T02:56:56.207Z,7.60
2022-09-07T02:57:56.186Z,7.20
2022-09-07T02:58:56.171Z,6.10
2022-09-07T02:59:56.151Z,6.30
2022-09-07T03:00:56.244Z,5.70
2022-09-07T03:01:56.112Z,7.10
2022-09-07T03:02:56.170Z,6.30
2022-09-07T03:03:56.077Z,4.80
2022-09-07T03:04:56.061Z,6.60
2022-09-07T03:05:56.042Z,6.20
2022-09-07T03:06:56.024Z,7.00
2022-09-07T03:07:56.003Z,5.90
2022-09-07T03:08:55.986Z,7.20
2022-09-07T03:09:55.966Z,7.30
2022-09-07T03:10:55.951Z,5.40
2022-09-07T03:11:55.930Z,5.50
2022-09-07T03:12:55.916Z,5.50
2022-09-07T03:13:55.896Z,6.40
2022-09-07T03:14:55.878Z,7.70
2022-09-07T03:15:56.514Z,6.30
2022-09-07T03:16:55.839Z,6.70
2022-09-07T03:17:55.818Z,7.50
2022-09-07T03:18:55.810Z,6.00
2022-09-07T03:19:55.784Z,4.70
2022-09-07T03:20:55.765Z,4.90
2022-09-07T03:21:55.746Z,5.00
2022-09-07T03:22:55.729Z,4.90
2022-09-07T03:23:55.711Z,6.20
2022-09-07T03:24:55.694Z,5.20
2022-09-07T03:25:55.671Z,5.70
2022-09-07T03:26:55.659Z,5.40
2022-09-07T03:27:55.638Z,5.40
2022-09-07T03:28:55.624Z,6.00
2022-09-07T03:29:55.600Z,5.40
2022-09-07T03:30:55.709Z,6.80
2022-09-07T03:31:55.569Z,5.60
2022-09-07T03:32:55.553Z,6.20
2022-09-07T03:33:55.529Z,4.80
2022-09-07T03:34:55.548Z,4.40
2022-09-07T03:35:55.492Z,5.10
2022-09-07T03:36:55.474Z,5.20
2022-09-07T03:37:55.452Z,6.10
2022-09-07T03:38:55.434Z,5.00
2022-09-07T03:39:55.510Z,4.80
2022-09-07T03:40:55.400Z,6.70
2022-09-07T03:41:55.376Z,5.10
2022-09-07T03:42:55.566Z,4.80
2022-09-07T03:43:55.345Z,5.60
2022-09-07T03:44:55.323Z,5.50
2022-09-07T03:45:55.391Z,4.50
2022-09-07T03:46:55.288Z,5.60
2022-09-07T03:47:55.269Z,6.70
2022-09-07T03:48:55.252Z,5.20
2022-09-07T03:49:55.230Z,6.80
2022-09-07T03:50:55.216Z,5.40
2022-09-07T03:51:55.195Z,5.30
2022-09-07T03:52:55.177Z,6.20
2022-09-07T03:53:55.157Z,5.00
2022-09-07T03:54:55.141Z,5.40
2022-09-07T03:55:55.119Z,5.10
2022-09-07T03:56:55.102Z,4.80
2022-09-07T03:57:55.082Z,4.70
2022-09-07T03:58:55.067Z,6.00
2022-09-07T03:59:55.049Z,5.10
2022-09-07T04:00:55.034Z,6.30
2022-09-07T04:01:55.089Z,5.00
2022-09-07T04:02:55.075Z,6.10
2022-09-07T04:03:58.776Z,5.70
2022-09-07T04:04:54.953Z,4.50
2022-09-07T04:05:54.931Z,5.50
2022-09-07T04:06:54.917Z,4.90
2022-09-07T04:07:54.895Z,4.60
2022-09-07T04:08:54.887Z,4.80
2022-09-07T04:09:54.858Z,4.80
2022-09-07T04:10:54.842Z,4.80
2022-09-07T04:11:54.821Z,5.90
2022-09-07T04:12:54.802Z,5.50
2022-09-07T04:13:54.792Z,5.40
2022-09-07T04:14:54.765Z,5.50
2022-09-07T04:15:54.751Z,4.90
2022-09-07T04:16:54.868Z,5.20
2022-09-07T04:17:54.706Z,4.20
2022-09-07T04:18:54.692Z,4.60
2022-09-07T04:19:54.674Z,5.40
2022-09-07T04:20:54.656Z,6.10
2022-09-07T04:21:54.633Z,5.00
2022-09-07T04:22:54.615Z,5.30
2022-09-07T04:23:54.604Z,4.80
2022-09-07T04:24:54.581Z,5.50
2022-09-07T04:25:54.558Z,5.00
2022-09-07T04:26:54.540Z,6.30
2022-09-07T04:27:54.519Z,5.90
2022-09-07T04:28:54.503Z,4.70
2022-09-07T04:29:54.481Z,6.20
2022-09-07T04:30:54.539Z,5.60
2022-09-07T04:31:54.450Z,6.00
2022-09-07T04:32:54.429Z,4.10
2022-09-07T04:33:54.410Z,5.50
2022-09-07T04:34:54.394Z,5.60
2022-09-07T04:35:54.374Z,5.00
2022-09-07T04:36:54.356Z,5.20
2022-09-07T04:37:54.332Z,4.30
2022-09-07T04:38:54.322Z,5.60
2022-09-07T04:39:54.367Z,4.60
2022-09-07T04:40:54.281Z,4.10
2022-09-07T04:41:54.260Z,4.00
2022-09-07T04:42:54.244Z,4.20
2022-09-07T04:43:54.222Z,4.50
2022-09-07T04:44:54.202Z,5.40
2022-09-07T04:45:54.229Z,4.90
2022-09-07T04:46:54.163Z,4.30
2022-09-07T04:47:54.146Z,4.30
2022-09-07T04:48:54.129Z,5.00
2022-09-07T04:49:54.105Z,5.00
2022-09-07T04:50:54.087Z,5.00
2022-09-07T04:51:54.069Z,4.60
2022-09-07T04:52:54.050Z,5.30
2022-09-07T04:53:54.030Z,5.70
2022-09-07T04:54:54.054Z,5.20
2022-09-07T04:55:54.023Z,4.80
2022-09-07T04:56:53.986Z,5.20
2022-09-07T04:57:53.997Z,6.40
2022-09-07T04:58:53.940Z,6.50
2022-09-07T04:59:53.916Z,5.70
2022-09-07T05:00:54.013Z,5.20
2022-09-07T05:01:53.935Z,4.50
2022-09-07T05:02:53.861Z,4.80
2022-09-07T05:03:53.838Z,5.00
2022-09-07T05:04:53.830Z,5.60
2022-09-07T05:05:53.817Z,5.50
2022-09-07T05:06:53.786Z,5.50
2022-09-07T05:07:53.764Z,5.40
2022-09-07T05:08:53.749Z,5.10
2022-09-07T05:09:53.725Z,4.20
2022-09-07T05:10:53.708Z,4.00
2022-09-07T05:11:53.688Z,5.20
2022-09-07T05:12:53.668Z,6.10
2022-09-07T05:13:53.649Z,4.20
2022-09-07T05:14:53.630Z,4.20
2022-09-07T05:15:53.612Z,4.10
2022-09-07T05:16:53.654Z,3.80
2022-09-07T05:17:53.570Z,6.30
2022-09-07T05:18:53.557Z,4.50
2022-09-07T05:19:53.535Z,4.90
2022-09-07T05:20:53.518Z,4.30
2022-09-07T05:21:53.496Z,4.40
2022-09-07T05:22:53.479Z,4.60
2022-09-07T05:23:53.460Z,5.20
2022-09-07T05:24:53.440Z,4.90
2022-09-07T05:25:53.422Z,5.20
2022-09-07T05:26:53.403Z,5.70
2022-09-07T05:27:53.383Z,6.80
2022-09-07T05:31:53.311Z,5.90
2022-09-07T05:32:53.298Z,5.30
2022-09-07T05:34:53.250Z,6.20
2022-09-07T05:35:53.228Z,7.10
2022-09-07T05:36:53.215Z,5.90
2022-09-07T05:37:53.193Z,5.80
2022-09-07T05:38:53.174Z,6.60
2022-09-07T05:39:53.203Z,5.70
2022-09-07T05:40:53.135Z,6.10
2022-09-07T05:41:53.114Z,5.20
2022-09-07T05:42:53.098Z,7.30
2022-09-07T05:44:53.058Z,5.50
2022-09-07T05:45:53.092Z,5.70
2022-09-07T05:46:53.026Z,7.50
2022-09-07T05:47:53.001Z,6.70
2022-09-07T05:48:52.981Z,7.00
2022-09-07T05:49:55.260Z,6.60
2022-09-07T05:50:52.943Z,6.30
2022-09-07T05:51:52.923Z,9.40
2022-09-07T05:52:52.907Z,8.60
2022-09-07T05:53:52.887Z,6.90
2022-09-07T05:54:56.631Z,8.40
2022-09-07T05:55:52.848Z,7.40
2022-09-07T05:56:52.829Z,6.50
2022-09-07T05:57:52.807Z,5.90
2022-09-07T05:58:52.796Z,8.90
2022-09-07T05:59:52.772Z,6.70
2022-09-07T06:00:52.753Z,6.90
2022-09-07T06:01:52.827Z,7.60
2022-09-07T06:02:52.834Z,6.90
2022-09-07T06:03:52.696Z,6.40
2022-09-07T06:04:52.679Z,7.40
2022-09-07T06:05:52.655Z,5.60
2022-09-07T06:07:20.072Z,6.30
2022-09-07T06:07:52.621Z,6.40
2022-09-07T06:08:52.606Z,7.30
2022-09-07T06:10:52.564Z,7.80
2022-09-07T06:11:52.544Z,10.30
2022-09-07T06:12:52.523Z,8.40
2022-09-07T06:13:52.507Z,6.40
2022-09-07T06:14:52.486Z,6.30
2022-09-07T06:15:52.465Z,6.10
2022-09-07T06:16:52.529Z,7.60
2022-09-07T06:17:52.427Z,7.80
2022-09-07T06:18:52.413Z,5.80
2022-09-07T06:19:52.392Z,5.70
2022-09-07T06:20:52.378Z,7.40
2022-09-07T06:21:52.350Z,6.30
2022-09-07T06:22:52.338Z,6.40
2022-09-07T06:23:52.317Z,7.00
2022-09-07T06:24:52.295Z,6.80
2022-09-07T06:25:52.275Z,8.80
2022-09-07T06:26:52.263Z,9.80
2022-09-07T06:27:52.239Z,6.20
2022-09-07T06:28:57.186Z,6.60
2022-09-07T06:29:52.199Z,7.60
2022-09-07T06:30:52.181Z,7.40
2022-09-07T06:32:52.153Z,6.80
2022-09-07T06:33:52.121Z,6.40
2022-09-07T06:34:52.107Z,6.50
2022-09-07T06:35:52.086Z,7.80
2022-09-07T06:36:52.067Z,8.40
2022-09-07T06:37:52.051Z,7.40
2022-09-07T06:38:52.030Z,6.90
2022-09-07T06:39:52.079Z,7.60
2022-09-07T06:41:59.294Z,6.90
2022-09-07T06:42:51.953Z,7.20
2022-09-07T06:43:51.937Z,8.70
2022-09-07T06:44:51.915Z,8.10
2022-09-07T06:45:52.026Z,7.90
2022-09-07T06:47:07.237Z,7.00
2022-09-07T06:47:51.863Z,6.70
2022-09-07T06:48:51.837Z,8.70
2022-09-07T06:49:51.818Z,7.10
2022-09-07T06:50:51.798Z,9.70
2022-09-07T06:51:51.781Z,8.70
2022-09-07T06:53:52.173Z,7.20
2022-09-07T06:54:59.325Z,7.00
2022-09-07T06:55:51.712Z,8.30
2022-09-07T06:56:51.690Z,8.10
2022-09-07T06:57:51.673Z,7.60
2022-09-07T06:58:51.659Z,7.90
2022-09-07T06:59:51.636Z,8.90
2022-09-07T07:00:51.680Z,7.00
2022-09-07T07:01:51.593Z,11.70
2022-09-07T07:02:51.622Z,8.70
2022-09-07T07:03:51.558Z,7.60
2022-09-07T07:04:51.539Z,8.50
2022-09-07T07:05:51.517Z,7.30
2022-09-07T07:06:51.505Z,8.80
2022-09-07T07:07:51.484Z,7.30
2022-09-07T07:08:51.460Z,6.60
2022-09-07T07:09:51.445Z,8.20
2022-09-07T07:10:51.423Z,6.60
2022-09-07T07:11:51.409Z,6.70
2022-09-07T07:12:51.390Z,6.90
2022-09-07T07:13:51.375Z,8.50
2022-09-07T07:14:51.355Z,7.50
2022-09-07T07:15:51.338Z,7.80
2022-09-07T07:16:51.346Z,6.60
2022-09-07T07:17:58.145Z,7.40
2022-09-07T07:18:51.279Z,6.90
2022-09-07T07:19:51.265Z,7.50
2022-09-07T07:20:51.246Z,8.00
2022-09-07T07:22:51.205Z,6.50
2022-09-07T07:23:51.186Z,8.10
2022-09-07T07:24:51.164Z,7.40
2022-09-07T07:25:51.145Z,8.10
2022-09-07T07:26:51.127Z,7.00
2022-09-07T07:27:51.109Z,7.40
2022-09-07T07:29:06.564Z,7.50
2022-09-07T07:29:51.071Z,7.90
2022-09-07T07:30:51.050Z,8.70
2022-09-07T07:31:51.036Z,7.90
2022-09-07T07:32:51.026Z,7.90
2022-09-07T07:33:51.133Z,7.70
2022-09-07T07:34:50.984Z,8.30
2022-09-07T07:35:50.959Z,7.50
2022-09-07T07:36:50.939Z,7.70
2022-09-07T07:37:51.028Z,8.10
2022-09-07T07:42:50.828Z,7.00
2022-09-07T07:43:50.819Z,8.80
2022-09-07T07:46:50.968Z,7.90
2022-09-07T07:47:50.738Z,8.10
2022-09-07T07:48:50.717Z,8.10
2022-09-07T07:50:30.500Z,7.80
2022-09-07T07:50:50.683Z,8.70
2022-09-07T07:53:39.609Z,8.20
2022-09-07T07:53:50.624Z,9.50
2022-09-07T07:54:50.606Z,9.70
2022-09-07T07:55:50.589Z,10.30
2022-09-07T07:56:50.591Z,10.10
2022-09-07T07:57:50.553Z,10.10
2022-09-07T07:58:50.533Z,11.00
2022-09-07T07:59:50.514Z,10.90
2022-09-07T08:00:54.850Z,10.70
2022-09-07T08:01:50.673Z,9.60
2022-09-07T08:02:50.544Z,10.50
2022-09-07T08:03:50.441Z,10.20
2022-09-07T08:04:50.420Z,10.60
2022-09-07T08:05:50.426Z,10.20
2022-09-07T08:06:50.385Z,11.30
2022-09-07T08:07:50.368Z,10.60
2022-09-07T08:08:50.347Z,10.90
2022-09-07T08:09:50.329Z,11.60
2022-09-07T08:10:50.316Z,12.10
2022-09-07T08:11:50.293Z,11.20
2022-09-07T08:12:50.276Z,11.20
2022-09-07T08:13:50.269Z,11.10
2022-09-07T08:14:50.231Z,12.40
2022-09-07T08:15:50.244Z,11.10
2022-09-07T08:16:50.201Z,10.70
2022-09-07T08:17:50.181Z,10.70
2022-09-07T08:18:50.165Z,10.80
2022-09-07T08:19:50.162Z,12.10
2022-09-07T08:20:50.127Z,10.30
2022-09-07T08:21:50.125Z,10.80
2022-09-07T08:22:50.085Z,11.50
2022-09-07T08:23:50.071Z,11.20
2022-09-07T08:24:50.051Z,11.40
2022-09-07T08:25:50.035Z,12.00
2022-09-07T08:26:50.017Z,13.10
2022-09-07T08:27:50.145Z,13.40
2022-09-07T08:28:49.980Z,13.60
2022-09-07T08:29:49.957Z,13.50
2022-09-07T08:30:49.942Z,16.30
2022-09-07T08:31:50.007Z,16.00
2022-09-07T08:32:49.903Z,16.60
2022-09-07T08:33:49.885Z,17.10
2022-09-07T08:34:49.865Z,17.70
2022-09-07T08:35:49.849Z,17.20
2022-09-07T08:36:49.829Z,17.60
2022-09-07T08:37:49.837Z,18.80
2022-09-07T08:38:49.791Z,18.60
2022-09-07T08:39:49.871Z,17.30
2022-09-07T08:40:49.757Z,18.40
2022-09-07T08:41:49.742Z,19.80
2022-09-07T08:42:49.718Z,19.40
2022-09-07T08:43:49.699Z,18.40
2022-09-07T08:44:49.685Z,19.00
2022-09-07T08:45:49.663Z,20.00
2022-09-07T08:46:49.793Z,19.80
2022-09-07T08:47:49.628Z,18.90
2022-09-07T08:48:49.609Z,18.90
2022-09-07T08:49:49.593Z,19.30
2022-09-07T08:50:49.570Z,20.50
2022-09-07T08:51:49.589Z,19.90
2022-09-07T08:52:49.531Z,20.60
2022-09-07T08:53:49.542Z,21.00
2022-09-07T08:54:49.492Z,21.50
2022-09-07T08:55:49.477Z,20.80
2022-09-07T08:57:49.442Z,23.80
2022-09-07T08:58:50.199Z,23.70
2022-09-07T08:59:49.408Z,24.00
2022-09-07T09:00:49.479Z,25.20
2022-09-07T09:05:19.526Z,26.40
2022-09-07T09:05:49.450Z,26.70
2022-09-07T09:06:49.385Z,26.90
2022-09-07T09:07:49.255Z,27.00
2022-09-07T09:08:49.235Z,26.10
2022-09-07T09:09:49.238Z,27.70
2022-09-07T09:10:49.204Z,28.00
2022-09-07T09:11:49.191Z,27.80
2022-09-07T09:12:49.160Z,27.40
2022-09-07T09:13:49.143Z,26.40
2022-09-07T09:14:49.124Z,27.10
2022-09-07T09:15:49.195Z,28.00
2022-09-07T09:16:49.087Z,28.50
2022-09-07T09:17:49.067Z,27.10
2022-09-07T09:18:49.053Z,28.00
2022-09-07T09:19:49.032Z,26.60
2022-09-07T09:20:49.012Z,28.20
2022-09-07T09:21:49.001Z,28.90
2022-09-07T09:22:48.976Z,27.90
2022-09-07T09:23:48.964Z,28.00
2022-09-07T09:24:48.937Z,27.80
2022-09-07T09:25:48.946Z,26.90
2022-09-07T09:27:48.882Z,30.80
2022-09-07T09:28:48.866Z,27.20
2022-09-07T09:29:48.852Z,29.50
2022-09-07T09:30:48.905Z,28.40
2022-09-07T09:31:48.815Z,28.40
2022-09-07T09:32:48.794Z,27.50
2022-09-07T09:33:48.777Z,28.80
2022-09-07T09:34:48.763Z,28.10
2022-09-07T09:35:48.735Z,27.70
2022-09-07T09:36:48.723Z,28.30
2022-09-07T09:37:48.697Z,30.10
2022-09-07T09:38:48.684Z,30.10
2022-09-07T09:39:51.027Z,30.20
2022-09-07T09:40:48.642Z,29.60
2022-09-07T09:41:48.655Z,28.70
2022-09-07T09:42:48.606Z,28.10
2022-09-07T09:43:48.587Z,27.10
2022-09-07T09:44:48.569Z,27.60
2022-09-07T09:47:29.363Z,28.20
2022-09-07T09:47:48.577Z,28.10
2022-09-07T09:48:48.496Z,28.70
2022-09-07T09:49:48.490Z,27.70
2022-09-07T09:52:51.875Z,26.80
2022-09-07T09:53:48.406Z,27.60
2022-09-07T09:54:48.397Z,25.10
2022-09-07T09:55:50.424Z,25.40
2022-09-07T09:56:48.347Z,24.50
2022-09-07T09:59:04.885Z,24.30
2022-09-07T09:59:58.190Z,23.40
2022-09-07T10:03:56.510Z,26.50
2022-09-07T10:04:48.203Z,24.10
2022-09-07T10:05:48.187Z,25.20
2022-09-07T10:06:48.166Z,24.00
2022-09-07T10:07:48.153Z,25.30
2022-09-07T10:08:48.133Z,26.80
2022-09-07T10:09:48.116Z,26.40
2022-09-07T10:10:48.095Z,26.80
2022-09-07T10:12:48.058Z,26.60
2022-09-07T10:13:48.059Z,28.00
2022-09-07T10:14:48.022Z,27.30
2022-09-07T10:15:48.019Z,27.80
2022-09-07T10:16:47.997Z,27.10
2022-09-07T10:17:47.975Z,25.30
2022-09-07T10:18:47.951Z,25.40
2022-09-07T10:19:47.929Z,24.70
2022-09-07T10:20:47.914Z,26.30
2022-09-07T10:21:47.899Z,25.30
2022-09-07T10:22:51.445Z,25.20
2022-09-07T10:23:47.860Z,24.10
2022-09-07T10:24:47.843Z,24.30
2022-09-07T10:25:47.822Z,24.70
2022-09-07T10:26:47.805Z,24.20
2022-09-07T10:27:47.798Z,23.10
2022-09-07T10:29:17.479Z,23.00
2022-09-07T10:29:47.774Z,22.10
2022-09-07T10:30:47.763Z,21.70
2022-09-07T10:31:47.727Z,23.10
2022-09-07T10:32:47.700Z,22.90
2022-09-07T10:34:25.813Z,23.90
2022-09-07T10:34:47.662Z,21.90
2022-09-07T10:35:47.905Z,23.30
2022-09-07T10:36:47.625Z,21.60
2022-09-07T10:37:47.607Z,22.60
2022-09-07T10:38:47.587Z,21.90
2022-09-07T10:39:47.650Z,23.60
2022-09-07T10:40:47.555Z,23.20
2022-09-07T10:41:47.540Z,22.20
2022-09-07T10:43:47.503Z,22.10
2022-09-07T10:44:47.483Z,20.50
2022-09-07T10:45:47.485Z,20.10
2022-09-07T10:47:02.928Z,21.90
2022-09-07T10:47:47.432Z,21.30
2022-09-07T10:48:47.411Z,21.00
2022-09-07T10:50:47.379Z,20.90
2022-09-07T10:51:47.362Z,19.90
2022-09-07T10:52:47.346Z,19.40
2022-09-07T10:53:47.531Z,19.20
2022-09-07T10:54:47.303Z,20.10
2022-09-07T10:55:47.286Z,17.80
2022-09-07T10:56:47.269Z,16.70
2022-09-07T10:57:49.282Z,16.70
2022-09-07T10:59:03.507Z,17.80
2022-09-07T11:00:47.196Z,16.80
2022-09-07T11:01:47.251Z,15.90
2022-09-07T11:03:47.243Z,13.20
2022-09-07T11:04:47.123Z,13.50
2022-09-07T11:05:47.106Z,14.70
2022-09-07T11:06:47.092Z,15.30
2022-09-07T11:07:47.074Z,14.20
2022-09-07T11:09:17.606Z,14.60
2022-09-07T11:09:47.034Z,13.40
2022-09-07T11:10:47.017Z,13.60
2022-09-07T11:12:03.392Z,13.00
2022-09-07T11:12:46.984Z,12.30
2022-09-07T11:14:11.358Z,12.60
2022-09-07T11:14:46.948Z,12.90
2022-09-07T11:15:46.964Z,13.20
2022-09-07T11:16:50.876Z,13.50
2022-09-07T11:17:52.075Z,13.10
2022-09-07T11:18:46.873Z,12.60
2022-09-07T11:19:46.857Z,12.00
2022-09-07T11:20:46.839Z,13.40
2022-09-07T11:22:02.326Z,13.00
2022-09-07T11:22:46.803Z,14.10
2022-09-07T11:23:46.784Z,13.40
2022-09-07T11:24:47.230Z,13.80
2022-09-07T11:25:46.886Z,11.60
2022-09-07T11:26:46.732Z,12.00
2022-09-07T11:27:46.714Z,12.80
2022-09-07T11:28:47.187Z,11.10
2022-09-07T11:29:46.677Z,11.70
2022-09-07T11:30:46.747Z,11.70
2022-09-07T11:31:46.645Z,11.50
2022-09-07T11:32:46.626Z,11.30
2022-09-07T11:34:23.879Z,12.30
2022-09-07T11:34:46.589Z,9.40
2022-09-07T11:35:46.580Z,10.20
2022-09-07T11:36:46.560Z,7.90
2022-09-07T11:37:46.541Z,7.80
2022-09-07T11:38:46.529Z,7.80
2022-09-07T11:39:46.578Z,8.70
2022-09-07T11:40:46.487Z,8.40
2022-09-07T11:41:46.463Z,9.30
2022-09-07T11:42:46.458Z,9.60
2022-09-07T11:43:46.431Z,8.20
2022-09-07T11:44:46.410Z,16.60
2022-09-07T11:45:46.391Z,17.40
2022-09-07T11:46:46.491Z,7.90
2022-09-07T11:47:46.359Z,8.20
2022-09-07T11:48:46.341Z,7.40
2022-09-07T11:49:51.478Z,8.20
2022-09-07T11:50:46.306Z,7.50
2022-09-07T11:51:46.284Z,8.30
2022-09-07T11:52:46.277Z,7.70
2022-09-07T11:53:46.251Z,6.90
2022-09-07T11:54:46.232Z,6.60
2022-09-07T11:55:46.220Z,8.00
2022-09-07T11:56:46.197Z,7.70
2022-09-07T11:57:46.180Z,8.20
2022-09-07T11:58:46.159Z,8.10
2022-09-07T11:59:46.155Z,8.20
2022-09-07T12:00:46.126Z,8.20
2022-09-07T12:01:46.106Z,8.10
2022-09-07T12:02:58.842Z,7.50
2022-09-07T12:03:46.222Z,7.40
2022-09-07T12:04:46.091Z,7.60
2022-09-07T12:05:46.066Z,8.60
2022-09-07T12:06:46.016Z,8.10
2022-09-07T12:07:45.998Z,8.70
2022-09-07T12:08:45.986Z,9.00
2022-09-07T12:09:45.969Z,10.50
2022-09-07T12:10:45.948Z,8.00
2022-09-07T12:11:45.934Z,7.70
2022-09-07T12:12:45.912Z,8.20
2022-09-07T12:13:45.888Z,7.90
2022-09-07T12:14:45.874Z,8.80
2022-09-07T12:15:45.987Z,9.40
2022-09-07T12:16:45.840Z,9.00
2022-09-07T12:17:45.819Z,8.60
2022-09-07T12:18:45.797Z,8.20
2022-09-07T12:19:45.786Z,9.10
2022-09-07T12:20:45.775Z,7.50
2022-09-07T12:21:45.805Z,9.30
2022-09-07T12:22:45.732Z,7.70
2022-09-07T12:23:45.724Z,10.10
2022-09-07T12:24:45.695Z,8.30
2022-09-07T12:25:45.683Z,8.90
2022-09-07T12:26:45.662Z,9.30
2022-09-07T12:27:45.641Z,9.70
2022-09-07T12:28:45.627Z,9.40
2022-09-07T12:29:45.733Z,9.30
2022-09-07T12:30:45.637Z,9.60
2022-09-07T12:31:57.583Z,9.40
2022-09-07T12:32:54.251Z,9.90
2022-09-07T12:33:45.540Z,9.70
2022-09-07T12:34:45.512Z,10.00
2022-09-07T12:35:45.508Z,9.40
2022-09-07T12:36:45.485Z,10.30
2022-09-07T12:37:45.489Z,9.80
2022-09-07T12:38:45.447Z,10.30
2022-09-07T12:39:45.480Z,9.00
2022-09-07T12:40:45.414Z,10.10
2022-09-07T12:41:47.455Z,9.50
2022-09-07T12:42:45.377Z,9.30
2022-09-07T12:43:45.363Z,9.60
2022-09-07T12:44:45.360Z,9.50
2022-09-07T12:45:45.327Z,9.90
2022-09-07T12:46:46.775Z,10.10
2022-09-07T12:47:45.296Z,11.30
2022-09-07T12:48:45.276Z,10.70
2022-09-07T12:49:45.254Z,11.80
2022-09-07T12:50:45.247Z,11.70
2022-09-07T12:52:06.797Z,10.50
2022-09-07T12:52:45.204Z,12.40
2022-09-07T12:53:45.208Z,12.70
2022-09-07T12:54:45.170Z,12.80
2022-09-07T12:56:45.485Z,12.10
2022-09-07T12:57:45.115Z,12.40
2022-09-07T12:58:45.099Z,11.20
2022-09-07T12:59:45.083Z,10.30
2022-09-07T13:00:45.064Z,11.50
2022-09-07T13:01:45.210Z,10.60
2022-09-07T13:02:45.092Z,10.50
2022-09-07T13:03:52.492Z,10.90
2022-09-07T13:04:44.994Z,10.80
2022-09-07T13:05:44.977Z,11.10
2022-09-07T13:07:44.943Z,11.10
2022-09-07T13:08:44.927Z,11.00
2022-09-07T13:09:44.929Z,12.10
2022-09-07T13:10:44.894Z,12.30
2022-09-07T13:11:45.677Z,12.50
2022-09-07T13:13:00.141Z,13.10
2022-09-07T13:14:44.822Z,12.00
2022-09-07T13:15:44.865Z,11.60
2022-09-07T13:17:44.770Z,11.10
2022-09-07T13:18:44.753Z,12.30
2022-09-07T13:19:44.732Z,11.30
2022-09-07T13:20:44.718Z,12.40
2022-09-07T13:21:44.700Z,11.90
2022-09-07T13:22:44.694Z,13.40
2022-09-07T13:23:45.724Z,12.70
2022-09-07T13:24:46.485Z,11.20
2022-09-07T13:25:44.671Z,10.60
2022-09-07T13:26:47.133Z,10.90
2022-09-07T13:27:44.611Z,11.20
2022-09-07T13:28:44.578Z,11.50
2022-09-07T13:29:44.559Z,10.60
2022-09-07T13:30:44.616Z,12.20
2022-09-07T13:31:45.349Z,11.40
2022-09-07T13:33:44.483Z,12.70
2022-09-07T13:34:44.479Z,11.20
2022-09-07T13:35:44.458Z,12.20
2022-09-07T13:36:44.446Z,11.30
2022-09-07T13:37:44.423Z,10.80
2022-09-07T13:38:44.405Z,11.30
2022-09-07T13:39:44.474Z,11.90
2022-09-07T13:40:44.370Z,11.20
2022-09-07T13:41:44.419Z,10.20
2022-09-07T13:42:44.336Z,9.50
2022-09-07T13:43:44.326Z,10.20
2022-09-07T13:44:44.303Z,8.90
2022-09-07T13:45:44.321Z,9.30
2022-09-07T13:46:44.266Z,11.30
2022-09-07T13:47:44.251Z,11.40
2022-09-07T13:48:44.232Z,12.20